Time;durP1;ratioP1;P1;durP2;ratioP2;P2;SDS_P1;SDS_P2;PMS_P1;PMS_P2;Temp;Humidity;BMP_temperature;BMP_pressure;BME280_temperature;BME280_humidity;BME280_pressure;Samples;Min_cycle;Max_cycle;Signal;HPM_P1;HPM_P2
2023/09/28 00:00:58;;;;;;;5.00;4.50;;;13.90;1.00;;;;;;5020135;28;20484;-84
2023/09/28 00:03:24;;;;;;;4.60;4.20;;;13.90;1.00;;;;;;5018412;28;20404;-86
2023/09/28 00:05:53;;;;;;;5.07;4.57;;;14.00;1.00;;;;;;5019944;28;20384;-84
2023/09/28 00:08:18;;;;;;;6.40;4.70;;;14.10;1.00;;;;;;5018681;28;20392;-85
2023/09/28 00:10:44;;;;;;;4.93;4.27;;;14.00;1.00;;;;;;5017937;28;20400;-84
2023/09/28 00:13:09;;;;;;;4.43;4.03;;;13.40;1.00;;;;;;5018528;28;20484;-86
2023/09/28 00:15:35;;;;;;;4.90;4.40;;;14.10;1.00;;;;;;5019844;28;20397;-85
2023/09/28 00:18:01;;;;;;;4.50;4.10;;;13.70;1.00;;;;;;5018672;28;20464;-84
2023/09/28 00:20:28;;;;;;;4.57;4.18;;;14.10;1.00;;;;;;5018457;28;20468;-86
2023/09/28 00:22:55;;;;;;;5.35;4.68;;;13.40;1.00;;;;;;5020557;28;20384;-86
2023/09/28 00:25:23;;;;;;;4.80;4.10;;;13.60;1.00;;;;;;5019226;28;20400;-84
2023/09/28 00:27:53;;;;;;;4.80;3.78;;;14.20;1.00;;;;;;5002560;28;20387;-84
2023/09/28 00:30:22;;;;;;;5.60;4.10;;;14.30;1.00;;;;;;4997725;28;20886;-84
2023/09/28 00:32:50;;;;;;;4.85;3.95;;;15.20;1.00;;;;;;4997894;28;20875;-84
2023/09/28 00:35:17;;;;;;;5.38;3.88;;;14.40;1.00;;;;;;5017195;28;20431;-86
2023/09/28 00:37:43;;;;;;;5.90;4.13;;;13.90;1.00;;;;;;5017028;28;20458;-84
2023/09/28 00:40:21;;;;;;;4.30;3.90;;;14.20;1.00;;;;;;5017108;28;20413;-86
2023/09/28 00:42:51;;;;;;;4.57;4.18;;;14.30;1.00;;;;;;5007254;28;20488;-85
2023/09/28 00:45:19;;;;;;;5.90;4.40;;;14.30;1.00;;;;;;5017973;28;20397;-86
2023/09/28 00:47:45;;;;;;;5.30;4.03;;;14.10;1.00;;;;;;5016910;28;20407;-84
2023/09/28 00:50:14;;;;;;;5.15;4.05;;;14.20;1.00;;;;;;5017111;28;20388;-85
2023/09/28 00:52:46;;;;;;;4.70;4.00;;;14.20;1.00;;;;;;5018545;28;20393;-84
2023/09/28 00:55:15;;;;;;;4.55;3.80;;;14.30;1.00;;;;;;5017751;28;20397;-86
2023/09/28 00:57:42;;;;;;;5.20;3.92;;;13.80;1.00;;;;;;5016813;28;20436;-85
2023/09/28 01:00:18;;;;;;;5.20;4.07;;;14.30;1.00;;;;;;5018461;28;20436;-87
2023/09/28 01:02:51;;;;;;;6.40;3.97;;;14.30;1.00;;;;;;5017060;28;20380;-85
2023/09/28 01:05:33;;;;;;;4.50;3.90;;;14.30;1.00;;;;;;5016138;28;20433;-86
2023/09/28 01:08:11;;;;;;;7.20;4.25;;;14.30;1.00;;;;;;5016221;28;20480;-85
2023/09/28 01:10:38;;;;;;;5.60;3.80;;;14.40;1.00;;;;;;5016205;28;20400;-85
2023/09/28 01:13:20;;;;;;;4.35;3.60;;;14.30;1.00;;;;;;5016709;28;20404;-86
2023/09/28 01:15:48;;;;;;;4.85;4.35;;;13.50;1.00;;;;;;4996919;28;20481;-84
2023/09/28 01:18:19;;;;;;;4.50;4.10;;;14.30;1.00;;;;;;5012155;28;20410;-85
2023/09/28 01:20:47;;;;;;;4.30;3.90;;;15.00;1.00;;;;;;5012878;28;20465;-86
2023/09/28 01:23:13;;;;;;;4.80;4.30;;;14.20;1.00;;;;;;5015495;28;20821;-86
2023/09/28 01:25:39;;;;;;;3.97;3.50;;;13.90;1.00;;;;;;5016240;28;20385;-86
2023/09/28 01:28:06;;;;;;;4.22;3.83;;;14.30;1.00;;;;;;5018178;28;20938;-86
2023/09/28 01:30:32;;;;;;;4.28;3.67;;;14.30;1.00;;;;;;5017491;28;20403;-89
2023/09/28 01:32:58;;;;;;;4.68;3.83;;;14.40;1.00;;;;;;5017007;28;20389;-84
2023/09/28 01:35:23;;;;;;;4.03;3.67;;;14.30;1.00;;;;;;5015856;28;20465;-86
2023/09/28 01:37:52;;;;;;;4.13;3.72;;;14.50;1.00;;;;;;5015737;28;20430;-84
2023/09/28 01:40:18;;;;;;;4.60;3.80;;;14.50;1.00;;;;;;5017695;28;20408;-84
2023/09/28 01:42:43;;;;;;;4.53;3.60;;;14.50;1.00;;;;;;5019155;28;20412;-84
2023/09/28 01:45:09;;;;;;;3.93;3.47;;;14.00;1.00;;;;;;5021692;28;20392;-84
2023/09/28 01:47:35;;;;;;;4.43;3.80;;;14.50;1.00;;;;;;5019218;28;20392;-87
2023/09/28 01:50:01;;;;;;;3.40;2.83;;;14.40;1.00;;;;;;5016887;28;20831;-85
2023/09/28 01:52:26;;;;;;;4.28;3.30;;;14.30;1.00;;;;;;5017229;28;20434;-86
2023/09/28 01:54:52;;;;;;;4.60;3.92;;;14.50;1.00;;;;;;5016578;28;20397;-84
2023/09/28 01:57:17;;;;;;;5.20;3.77;;;14.40;1.00;;;;;;5016980;28;20393;-85
2023/09/28 01:59:43;;;;;;;4.17;3.77;;;14.20;1.00;;;;;;5016490;28;20861;-86
2023/09/28 02:02:10;;;;;;;5.55;3.90;;;14.30;1.00;;;;;;5016153;28;20751;-85
2023/09/28 02:04:39;;;;;;;4.25;3.70;;;13.60;1.00;;;;;;5016033;28;20447;-85
2023/09/28 02:07:04;;;;;;;4.72;3.40;;;14.30;1.00;;;;;;5016566;28;20393;-85
2023/09/28 02:09:31;;;;;;;5.20;3.57;;;13.30;1.00;;;;;;5001067;28;20391;-84
2023/09/28 02:11:57;;;;;;;4.55;3.28;;;14.60;1.00;;;;;;5002004;28;20527;-86
2023/09/28 02:14:23;;;;;;;5.47;3.80;;;14.60;1.00;;;;;;5016137;28;20749;-84
2023/09/28 02:16:50;;;;;;;4.38;3.80;;;14.90;1.00;;;;;;5016000;28;20396;-84
2023/09/28 02:19:16;;;;;;;4.45;3.63;;;14.60;1.00;;;;;;5014939;28;20409;-87
2023/09/28 02:21:41;;;;;;;4.70;3.42;;;13.90;1.00;;;;;;5014530;28;20504;-86
2023/09/28 02:24:08;;;;;;;4.07;3.58;;;14.60;1.00;;;;;;5016737;28;20403;-86
2023/09/28 02:26:34;;;;;;;3.90;3.45;;;14.50;1.00;;;;;;5018811;28;20443;-87
2023/09/28 02:28:59;;;;;;;3.97;3.58;;;14.50;1.00;;;;;;5025333;28;20392;-84
2023/09/28 02:31:25;;;;;;;5.20;3.90;;;14.50;1.00;;;;;;5035006;28;20397;-83
2023/09/28 02:33:51;;;;;;;4.20;3.63;;;14.50;1.00;;;;;;5031982;28;20381;-85
2023/09/28 02:36:16;;;;;;;5.07;3.72;;;14.50;1.00;;;;;;5034573;28;20380;-84
2023/09/28 02:38:43;;;;;;;4.63;3.80;;;14.90;1.00;;;;;;5034644;28;20420;-84
2023/09/28 02:41:15;;;;;;;3.63;3.15;;;14.50;1.00;;;;;;5033737;28;20392;-84
2023/09/28 02:43:41;;;;;;;3.65;3.30;;;14.40;1.00;;;;;;5028634;28;20392;-86
2023/09/28 02:46:06;;;;;;;4.63;3.50;;;14.50;1.00;;;;;;5024030;28;20426;-86
2023/09/28 02:48:33;;;;;;;4.45;3.60;;;15.10;1.00;;;;;;5027530;28;20388;-83
2023/09/28 02:50:59;;;;;;;4.03;3.40;;;14.50;1.00;;;;;;5033828;28;20392;-85
2023/09/28 02:53:24;;;;;;;5.33;3.30;;;14.50;1.00;;;;;;5034818;28;20407;-86
2023/09/28 02:55:51;;;;;;;4.00;3.08;;;14.30;1.00;;;;;;5031732;28;20487;-86
2023/09/28 02:58:16;;;;;;;4.00;3.20;;;14.50;1.00;;;;;;5024753;28;20442;-86
2023/09/28 03:00:42;;;;;;;4.00;3.43;;;14.60;1.00;;;;;;5024104;28;20828;-86
2023/09/28 03:03:09;;;;;;;4.50;3.60;;;14.50;1.00;;;;;;5022586;28;20450;-85
2023/09/28 03:05:38;;;;;;;4.85;3.70;;;13.60;1.00;;;;;;5021313;28;20475;-86
2023/09/28 03:08:09;;;;;;;5.70;3.42;;;14.60;1.00;;;;;;5020503;28;20416;-84
2023/09/28 03:10:41;;;;;;;4.93;3.20;;;14.70;1.00;;;;;;5020376;28;20391;-84
2023/09/28 03:13:08;;;;;;;5.00;3.50;;;14.70;1.00;;;;;;5021372;28;20388;-84
2023/09/28 03:15:34;;;;;;;4.40;3.70;;;14.80;1.00;;;;;;5021330;28;20403;-84
2023/09/28 03:17:59;;;;;;;4.60;3.50;;;14.80;1.00;;;;;;5021386;28;20384;-84
2023/09/28 03:20:26;;;;;;;4.53;3.30;;;14.80;1.00;;;;;;5023568;28;20420;-84
2023/09/28 03:22:52;;;;;;;6.22;3.50;;;14.70;1.00;;;;;;5022571;28;20412;-85
2023/09/28 03:25:20;;;;;;;3.95;3.25;;;14.70;1.00;;;;;;5023206;28;20407;-85
2023/09/28 03:27:53;;;;;;;4.50;3.10;;;14.70;1.00;;;;;;5023360;28;20412;-84
2023/09/28 03:30:21;;;;;;;3.50;3.20;;;14.60;1.00;;;;;;5022744;28;20919;-86
2023/09/28 03:32:47;;;;;;;4.35;3.30;;;14.50;1.00;;;;;;5022612;28;20805;-85
2023/09/28 03:35:13;;;;;;;4.20;3.30;;;14.60;1.00;;;;;;5023601;28;20385;-85
2023/09/28 03:37:40;;;;;;;4.32;3.45;;;14.20;1.00;;;;;;5020946;28;20395;-85
2023/09/28 03:40:10;;;;;;;3.95;3.50;;;14.10;1.00;;;;;;5022589;28;20417;-84
2023/09/28 03:42:44;;;;;;;5.13;3.30;;;14.40;1.00;;;;;;5019563;28;20439;-85
2023/09/28 03:45:11;;;;;;;3.70;3.30;;;14.50;1.00;;;;;;5018640;28;20483;-85
2023/09/28 03:47:38;;;;;;;3.67;3.33;;;14.40;1.00;;;;;;5022729;28;20385;-85
2023/09/28 03:50:06;;;;;;;3.63;3.22;;;14.40;1.00;;;;;;5022322;28;20384;-86
2023/09/28 03:52:32;;;;;;;3.47;3.17;;;14.30;1.00;;;;;;5021607;28;20393;-85
2023/09/28 03:54:57;;;;;;;4.50;3.40;;;14.30;1.00;;;;;;5021854;28;20903;-85
2023/09/28 03:57:23;;;;;;;4.93;3.43;;;14.30;1.00;;;;;;5021235;28;20408;-86
2023/09/28 03:59:49;;;;;;;4.03;3.37;;;14.20;1.00;;;;;;5018859;28;20470;-85
2023/09/28 04:02:14;;;;;;;5.18;3.67;;;13.60;1.00;;;;;;5020907;28;20412;-85
2023/09/28 04:04:40;;;;;;;3.75;3.20;;;14.40;1.00;;;;;;5020205;28;20749;-84
2023/09/28 04:07:07;;;;;;;4.18;3.42;;;14.30;1.00;;;;;;5028932;28;20420;-84
2023/09/28 04:09:32;;;;;;;3.50;3.10;;;15.50;1.00;;;;;;5028973;28;20421;-86
2023/09/28 04:11:59;;;;;;;4.87;3.40;;;13.40;1.00;;;;;;5030295;28;20396;-85
2023/09/28 04:14:24;;;;;;;4.10;3.60;;;12.80;1.00;;;;;;5029655;28;20403;-86
2023/09/28 04:16:50;;;;;;;5.35;3.15;;;12.30;1.00;;;;;;5031135;28;20389;-85
2023/09/28 04:19:16;;;;;;;3.83;3.43;;;13.30;1.00;;;;;;5028582;28;20404;-85
2023/09/28 04:21:41;;;;;;;3.80;3.27;;;15.90;1.00;;;;;;5026083;28;20416;-85
2023/09/28 04:24:07;;;;;;;5.20;3.30;;;13.80;1.00;;;;;;5029342;28;20400;-85
2023/09/28 04:26:32;;;;;;;4.60;3.47;;;14.10;1.00;;;;;;5030641;28;20393;-86
2023/09/28 04:28:59;;;;;;;4.57;3.30;;;15.20;1.00;;;;;;5030844;28;20396;-85
2023/09/28 04:31:24;;;;;;;5.07;3.10;;;14.10;1.00;;;;;;5027382;28;20384;-85
2023/09/28 04:33:50;;;;;;;4.60;2.90;;;13.90;1.00;;;;;;5016857;28;20398;-85
2023/09/28 04:36:16;;;;;;;4.80;3.20;;;13.60;1.00;;;;;;5021100;28;20468;-85
2023/09/28 04:38:42;;;;;;;4.13;3.35;;;13.70;1.00;;;;;;5025703;28;20397;-85
2023/09/28 04:41:08;;;;;;;3.67;2.80;;;11.70;1.00;;;;;;5022210;28;20393;-85
2023/09/28 04:43:34;;;;;;;3.20;2.90;;;13.80;1.00;;;;;;5018628;28;20401;-84
2023/09/28 04:46:05;;;;;;;3.65;3.10;;;15.20;1.00;;;;;;5017747;28;20386;-85
2023/09/28 04:48:31;;;;;;;4.10;2.97;;;13.90;1.00;;;;;;5021696;28;20388;-85
2023/09/28 04:50:57;;;;;;;4.30;3.10;;;12.20;1.00;;;;;;5029749;28;20408;-85
2023/09/28 04:53:23;;;;;;;4.93;3.50;;;13.80;1.00;;;;;;5014968;28;20399;-85
2023/09/28 04:55:48;;;;;;;4.43;3.60;;;13.40;1.00;;;;;;5030693;28;20827;-85
2023/09/28 04:58:14;;;;;;;4.43;3.37;;;12.30;1.00;;;;;;5031309;28;20397;-86
2023/09/28 05:00:39;;;;;;;4.80;3.47;;;14.70;1.00;;;;;;5027980;28;20467;-84
2023/09/28 05:03:05;;;;;;;5.07;3.30;;;12.60;1.00;;;;;;5030313;28;20499;-85
2023/09/28 05:05:32;;;;;;;3.30;3.00;;;13.60;1.00;;;;;;5020974;28;20896;-86
2023/09/28 05:07:58;;;;;;;4.70;3.60;;;11.80;1.00;;;;;;5019814;28;20865;-85
2023/09/28 05:10:24;;;;;;;3.90;3.00;;;12.10;1.00;;;;;;5016575;28;20459;-85
2023/09/28 05:12:49;;;;;;;3.60;3.23;;;13.40;1.00;;;;;;5032170;28;20434;-84
2023/09/28 05:15:15;;;;;;;6.10;3.22;;;13.50;1.00;;;;;;5029611;28;20409;-85
2023/09/28 05:17:41;;;;;;;4.10;3.15;;;14.00;1.00;;;;;;5022966;28;20414;-85
2023/09/28 05:20:08;;;;;;;3.95;2.90;;;14.80;1.00;;;;;;5024956;28;20453;-85
2023/09/28 05:22:35;;;;;;;4.10;2.70;;;14.10;1.00;;;;;;5013399;28;20383;-85
2023/09/28 05:25:01;;;;;;;3.77;3.00;;;12.30;1.00;;;;;;5017573;28;20392;-84
2023/09/28 05:27:26;;;;;;;4.10;2.80;;;16.30;1.00;;;;;;5022530;28;20393;-85
2023/09/28 05:29:52;;;;;;;3.90;3.00;;;13.80;1.00;;;;;;5024218;28;20389;-85
2023/09/28 05:32:17;;;;;;;3.47;3.10;;;13.90;1.00;;;;;;5027856;22;20474;-86
2023/09/28 05:34:43;;;;;;;4.50;2.90;;;13.90;1.00;;;;;;5008936;28;20769;-86
2023/09/28 05:37:09;;;;;;;4.15;3.00;;;14.10;1.00;;;;;;5012946;28;20472;-86
2023/09/28 05:39:37;;;;;;;4.80;3.00;;;14.20;1.00;;;;;;5016426;28;20416;-87
2023/09/28 05:47:36;;;;;;;3.20;2.70;;;14.10;1.00;;;;;;928921;26;20718;-86
2023/09/28 05:50:27;;;;;;;4.05;3.10;;;14.70;1.00;;;;;;5020685;28;20411;-86
2023/09/28 05:53:43;;;;;;;3.80;2.70;;;13.40;1.00;;;;;;4964851;28;20403;-87
2023/09/28 05:57:18;;;;;;;;;;;;;;;;;;;;;
2023/09/28 06:00:15;;;;;;;3.90;2.90;;;14.60;1.00;;;;;;4947648;29;20491;-87
2023/09/28 06:06:45;;;;;;;4.10;2.65;;;13.80;1.00;;;;;;4937779;29;20394;-87
2023/09/28 06:12:56;;;;;;;3.08;2.78;;;17.00;1.00;;;;;;4943246;29;20461;-86
2023/09/28 06:16:37;;;;;;;;;;;;;;;;;;;;;
2023/09/28 06:19:28;;;;;;;4.30;3.13;;;14.30;1.00;;;;;;5006902;28;20426;-88
2023/09/28 06:25:44;;;;;;;4.18;3.25;;;15.40;1.00;;;;;;4968671;28;20391;-86
2023/09/28 06:28:57;;;;;;;2.95;2.53;;;14.60;1.00;;;;;;4977963;28;20464;-91
2023/09/28 06:31:39;;;;;;;3.43;2.93;;;14.10;1.00;;;;;;4950832;28;20845;-88
2023/09/28 06:34:08;;;;;;;5.00;2.90;;;15.60;1.00;;;;;;4964758;28;20420;-88
2023/09/28 06:37:23;;;;;;;5.15;3.25;;;16.00;1.00;;;;;;4990497;28;20461;-88
2023/09/28 06:40:00;;;;;;;3.40;3.10;;;15.00;1.00;;;;;;4989461;28;20915;-88
2023/09/28 06:42:31;;;;;;;3.95;3.42;;;14.20;1.00;;;;;;4992666;28;20389;-87
2023/09/28 06:45:15;;;;;;;4.15;3.28;;;15.00;1.00;;;;;;5005738;28;20961;-87
2023/09/28 06:47:46;;;;;;;4.70;3.17;;;14.80;1.00;;;;;;5011273;28;20399;-88
2023/09/28 06:50:25;;;;;;;3.47;3.17;;;15.10;1.00;;;;;;5012007;28;20763;-86
2023/09/28 07:00:06;;;;;;;5.30;2.90;;;13.50;1.00;;;;;;4973031;28;20400;-88
2023/09/28 07:02:27;;;;;;;3.80;3.00;;;15.90;1.00;;;;;;4972444;28;20467;-88
2023/09/28 07:05:21;;;;;;;3.80;3.13;;;16.00;1.00;;;;;;4965957;28;20406;-88
2023/09/28 07:07:52;;;;;;;4.63;3.30;;;14.60;1.00;;;;;;4973725;28;20929;-89
2023/09/28 07:10:33;;;;;;;4.40;3.00;;;14.60;1.00;;;;;;4974304;28;20437;-88
2023/09/28 07:15:58;;;;;;;4.00;2.80;;;16.90;1.00;;;;;;4985305;28;20772;-88
2023/09/28 07:18:42;;;;;;;4.17;3.30;;;17.60;1.00;;;;;;4978084;28;20398;-86
2023/09/28 07:21:08;;;;;;;5.53;3.30;;;17.30;1.00;;;;;;4994968;28;20904;-87
2023/09/28 07:23:34;;;;;;;6.20;3.33;;;15.00;1.00;;;;;;5030487;28;20523;-89
2023/09/28 07:26:00;;;;;;;3.40;3.10;;;15.50;1.00;;;;;;5021049;28;20748;-88
2023/09/28 07:28:26;;;;;;;5.95;3.42;;;16.40;1.00;;;;;;4978299;28;20382;-89
2023/09/28 07:30:52;;;;;;;3.10;2.73;;;15.20;1.00;;;;;;4977631;28;20815;-89
2023/09/28 07:33:17;;;;;;;3.90;3.13;;;15.40;1.00;;;;;;4977767;28;20766;-86
2023/09/28 07:35:46;;;;;;;3.40;2.92;;;14.70;1.00;;;;;;4977844;28;20400;-86
2023/09/28 07:38:12;;;;;;;3.63;3.20;;;15.60;1.00;;;;;;4977363;28;20391;-89
2023/09/28 07:40:37;;;;;;;4.00;3.17;;;15.20;1.00;;;;;;4977787;28;20410;-89
2023/09/28 07:43:03;;;;;;;3.77;3.10;;;15.80;1.00;;;;;;4977258;28;20818;-88
2023/09/28 07:45:29;;;;;;;3.27;2.90;;;16.70;1.00;;;;;;4977850;28;20802;-89
2023/09/28 07:47:55;;;;;;;5.50;3.30;;;15.80;1.00;;;;;;4994518;28;20430;-89
2023/09/28 07:50:21;;;;;;;4.70;3.27;;;15.20;1.00;;;;;;4977278;28;20383;-88
2023/09/28 07:52:47;;;;;;;4.70;3.67;;;16.10;1.00;;;;;;4976950;28;20409;-89
2023/09/28 07:55:14;;;;;;;3.67;2.93;;;17.20;1.00;;;;;;4994899;28;20387;-88
2023/09/28 07:57:40;;;;;;;4.70;3.33;;;16.30;1.00;;;;;;4976878;28;20406;-88
2023/09/28 08:00:06;;;;;;;5.33;3.60;;;18.00;1.00;;;;;;4977538;28;20839;-89
2023/09/28 08:02:32;;;;;;;5.60;3.33;;;16.80;1.00;;;;;;4977096;28;20882;-88
2023/09/28 08:04:58;;;;;;;5.38;3.20;;;16.20;1.00;;;;;;4995205;28;20390;-89
2023/09/28 08:07:24;;;;;;;5.60;3.35;;;17.10;1.00;;;;;;4976922;28;20393;-88
2023/09/28 08:09:50;;;;;;;4.20;3.10;;;17.10;1.00;;;;;;4994090;28;20394;-88
2023/09/28 08:12:16;;;;;;;5.40;3.20;;;17.30;1.00;;;;;;4976733;28;20449;-88
2023/09/28 08:14:42;;;;;;;4.10;3.00;;;16.50;1.00;;;;;;4976648;28;20402;-88
2023/09/28 08:17:09;;;;;;;4.07;2.83;;;19.20;1.00;;;;;;4998331;28;20394;-88
2023/09/28 08:19:36;;;;;;;5.60;2.90;;;17.50;1.00;;;;;;4981726;28;20430;-88
2023/09/28 08:22:03;;;;;;;4.70;3.07;;;17.50;1.00;;;;;;4976746;28;20795;-88
2023/09/28 08:24:29;;;;;;;4.80;3.13;;;17.00;1.00;;;;;;4976866;28;20481;-88
2023/09/28 08:26:55;;;;;;;6.50;3.47;;;19.20;1.00;;;;;;4994080;28;20485;-88
2023/09/28 08:29:20;;;;;;;3.70;3.23;;;19.10;1.00;;;;;;4982277;28;20414;-89
2023/09/28 08:31:46;;;;;;;4.10;3.30;;;19.50;1.00;;;;;;4980904;28;20492;-89
2023/09/28 08:34:13;;;;;;;4.20;2.95;;;17.60;1.00;;;;;;4978637;28;20774;-88
2023/09/28 08:36:38;;;;;;;4.78;2.80;;;17.20;1.00;;;;;;4994544;28;20498;-88
2023/09/28 08:39:05;;;;;;;4.00;3.20;;;17.80;1.00;;;;;;4975854;28;20873;-88
2023/09/28 08:41:44;;;;;;;4.63;2.70;;;18.60;1.00;;;;;;4993676;28;20972;-89
2023/09/28 08:44:11;;;;;;;4.28;3.20;;;20.50;1.00;;;;;;4976459;28;20387;-87
2023/09/28 08:46:38;;;;;;;4.65;3.60;;;18.90;1.00;;;;;;4983439;28;20386;-87
2023/09/28 08:49:05;;;;;;;4.20;3.00;;;19.10;1.00;;;;;;4988791;28;20414;-87
2023/09/28 08:51:31;;;;;;;4.07;3.00;;;20.90;1.00;;;;;;4975950;28;20414;-87
2023/09/28 08:53:59;;;;;;;3.90;2.90;;;20.80;1.00;;;;;;4976104;28;20822;-87
2023/09/28 08:56:25;;;;;;;4.00;2.70;;;20.70;1.00;;;;;;4976598;28;20417;-87
2023/09/28 08:58:53;;;;;;;5.00;3.20;;;20.10;1.00;;;;;;4976088;28;20411;-87
2023/09/28 09:01:19;;;;;;;4.13;3.20;;;19.00;1.00;;;;;;4975877;28;20402;-87
2023/09/28 09:03:45;;;;;;;3.50;2.83;;;20.70;1.00;;;;;;4975765;28;20464;-87
2023/09/28 09:06:11;;;;;;;3.50;3.13;;;19.50;1.00;;;;;;4976198;28;20408;-87
2023/09/28 09:08:44;;;;;;;3.58;2.60;;;19.00;1.00;;;;;;4985756;28;20394;-86
2023/09/28 09:11:14;;;;;;;4.00;2.90;;;21.30;1.00;;;;;;4995199;28;20405;-87
2023/09/28 09:13:54;;;;;;;4.38;3.80;;;21.70;1.00;;;;;;4975712;28;20402;-87
2023/09/28 09:16:24;;;;;;;6.22;3.80;;;19.60;1.00;;;;;;4976991;28;20408;-87
2023/09/28 09:18:52;;;;;;;5.70;3.22;;;20.70;1.00;;;;;;4977006;28;20386;-88
2023/09/28 09:21:18;;;;;;;3.13;2.60;;;19.80;1.00;;;;;;5009051;28;20410;-87
2023/09/28 09:23:59;;;;;;;3.40;2.75;;;20.40;1.00;;;;;;4976416;28;20393;-88
2023/09/28 09:26:25;;;;;;;3.58;2.70;;;21.50;1.00;;;;;;4975893;28;20391;-87
2023/09/28 09:28:51;;;;;;;3.78;3.20;;;21.20;1.00;;;;;;4976129;28;20382;-88
2023/09/28 09:31:23;;;;;;;3.70;3.00;;;22.60;1.00;;;;;;4993806;28;20394;-88
2023/09/28 09:33:50;;;;;;;3.30;2.90;;;20.30;1.00;;;;;;5015284;28;20377;-87
2023/09/28 09:36:18;;;;;;;3.35;2.70;;;20.30;1.00;;;;;;4993741;28;20399;-88
2023/09/28 09:38:44;;;;;;;6.10;2.75;;;21.40;1.00;;;;;;4990519;28;20394;-88
2023/09/28 09:41:11;;;;;;;4.72;3.20;;;21.40;1.00;;;;;;4975535;28;20410;-88
2023/09/28 09:43:39;;;;;;;3.75;3.35;;;21.90;1.00;;;;;;4977145;28;20493;-88
2023/09/28 09:46:06;;;;;;;4.50;3.40;;;23.00;1.00;;;;;;4992912;28;20402;-88
2023/09/28 09:48:42;;;;;;;3.60;3.30;;;23.50;1.00;;;;;;4992346;28;20929;-88
2023/09/28 09:51:10;;;;;;;4.43;3.50;;;21.50;1.00;;;;;;4992114;28;20402;-89
2023/09/28 09:53:41;;;;;;;4.30;3.00;;;22.10;1.00;;;;;;4975432;28;20403;-88
2023/09/28 09:56:07;;;;;;;5.05;3.70;;;22.40;1.00;;;;;;4976214;28;20478;-88
2023/09/28 09:58:40;;;;;;;5.70;3.87;;;21.40;1.00;;;;;;4975195;28;20485;-88
2023/09/28 10:01:11;;;;;;;4.78;3.90;;;23.40;1.00;;;;;;4975472;28;20422;-89
2023/09/28 10:03:41;;;;;;;4.55;3.38;;;21.70;1.00;;;;;;4975214;28;20390;-88
2023/09/28 10:06:10;;;;;;;4.38;3.30;;;23.00;1.00;;;;;;4975060;28;20419;-88
2023/09/28 10:08:36;;;;;;;3.50;3.20;;;25.00;1.00;;;;;;4992479;28;20382;-89
2023/09/28 10:11:51;;;;;;;;;;;;;;;;;;;;;
2023/09/28 10:15:04;;;;;;;5.53;3.50;;;23.50;1.00;;;;;;4956648;28;20400;-87
2023/09/28 10:18:10;;;;;;;4.65;3.53;;;22.90;1.00;;;;;;4947143;28;20813;-87
2023/09/28 10:26:48;;;;;;;4.10;3.50;;;24.60;1.00;;;;;;4970556;28;20390;-87
2023/09/28 10:29:30;;;;;;;4.18;3.42;;;25.50;1.00;;;;;;4976025;28;20529;-89
2023/09/28 10:31:57;;;;;;;5.60;3.30;;;23.80;1.00;;;;;;4976341;28;20402;-90
2023/09/28 10:39:10;;;;;;;7.00;3.60;;;24.00;1.00;;;;;;4963251;28;20397;-89
2023/09/28 10:42:29;;;;;;;;;;;;;;;;;;;;;
2023/09/28 11:08:13;;;;;;;6.00;3.50;;;24.50;1.00;;;;;;5002460;28;20437;-88
2023/09/28 11:11:01;;;;;;;4.13;3.33;;;25.20;1.00;;;;;;4975149;28;20406;-89
2023/09/28 11:13:27;;;;;;;3.90;3.50;;;26.90;1.00;;;;;;4982295;28;20473;-85
2023/09/28 11:16:21;;;;;;;4.03;3.15;;;26.10;1.00;;;;;;4981716;28;20405;-87
2023/09/28 11:22:51;;;;;;;4.00;3.40;;;27.00;1.00;;;;;;4903977;29;20418;-85
2023/09/28 11:26:18;;;;;;;3.60;3.20;;;25.90;1.00;;;;;;4917269;29;20436;-87
2023/09/28 11:29:44;;;;;;;4.03;3.63;;;25.90;1.00;;;;;;5017387;28;20393;-87
2023/09/28 11:32:18;;;;;;;5.03;3.33;;;27.70;1.00;;;;;;5033034;23;20490;-86
2023/09/28 11:35:46;;;;;;;3.58;3.28;;;25.30;1.00;;;;;;5014994;28;20487;-87
2023/09/28 11:49:16;;;;;;;4.05;3.47;;;27.90;1.00;;;;;;4921080;28;20952;-89
2023/09/28 11:51:43;;;;;;;3.92;3.47;;;25.90;1.00;;;;;;4949730;28;20427;-85
2023/09/28 11:54:28;;;;;;;4.32;3.80;;;25.90;1.00;;;;;;4957172;28;20424;-87
2023/09/28 11:57:44;;;;;;;4.40;3.57;;;25.80;1.00;;;;;;4993150;28;20384;-88
2023/09/28 12:00:21;;;;;;;5.32;3.58;;;24.80;1.00;;;;;;4931613;28;20418;-88
2023/09/28 12:06:31;;;;;;;4.57;3.70;;;28.90;1.00;;;;;;5019438;28;20394;-87
2023/09/28 12:09:17;;;;;;;3.80;3.25;;;28.20;1.00;;;;;;5013440;28;20405;-88
2023/09/28 12:12:40;;;;;;;3.70;3.40;;;26.00;1.00;;;;;;5002487;28;20428;-87
2023/09/28 12:19:40;;;;;;;;;;;;;;;;;;;;;
2023/09/28 12:22:12;;;;;;;3.80;3.40;;;27.10;1.00;;;;;;4981789;28;20477;-86
2023/09/28 12:27:58;;;;;;;4.95;3.15;;;28.20;1.00;;;;;;5014602;28;20376;-87
2023/09/28 12:30:58;;;;;;;4.75;4.00;;;28.70;1.00;;;;;;4996259;28;20411;-87
2023/09/28 12:33:45;;;;;;;4.07;3.00;;;26.70;1.00;;;;;;5021832;28;20397;-87
2023/09/28 12:37:02;;;;;;;4.68;3.30;;;27.90;1.00;;;;;;5008185;28;20765;-88
2023/09/28 12:40:14;;;;;;;;;;;;;;;;;;;;;
2023/09/28 12:42:49;;;;;;;4.75;3.58;;;27.80;1.00;;;;;;5021034;28;20563;-86
2023/09/28 12:45:31;;;;;;;4.20;3.30;;;27.30;1.00;;;;;;5013506;28;20415;-87
2023/09/28 13:01:13;;;;;;;4.45;3.38;;;28.20;1.00;;;;;;4861853;29;20535;-87
2023/09/28 13:38:08;;;;;;;3.60;3.20;;;27.10;1.00;;;;;;1073994;22;20695;-84
2023/09/28 13:40:34;;;;;;;4.05;3.13;;;27.50;1.00;;;;;;4980430;28;20461;-84
2023/09/28 13:43:07;;;;;;;3.80;3.00;;;27.80;1.00;;;;;;4995376;28;20394;-84
2023/09/28 13:45:33;;;;;;;3.50;3.20;;;27.90;1.00;;;;;;4995348;28;20965;-82
2023/09/28 13:48:09;;;;;;;3.90;3.33;;;28.70;1.00;;;;;;4997521;28;20465;-87
2023/09/28 13:50:41;;;;;;;4.40;3.50;;;28.10;1.00;;;;;;4989397;28;20459;-88
2023/09/28 13:53:21;;;;;;;3.80;3.50;;;28.10;1.00;;;;;;4984951;28;20395;-86
2023/09/28 13:56:18;;;;;;;3.92;3.40;;;;;;;;;;4990263;28;20429;-87
2023/09/28 13:59:15;;;;;;;4.18;3.17;;;27.70;1.00;;;;;;4995883;28;20770;-87
2023/09/28 14:01:55;;;;;;;4.00;3.40;;;28.50;1.00;;;;;;4992271;28;20399;-86
2023/09/28 14:08:15;;;;;;;;;;;;;;;;;;;;;
2023/09/28 14:18:28;;;;;;;3.75;2.90;;;30.20;1.00;;;;;;4925718;29;20421;-89
2023/09/28 14:21:03;;;;;;;4.90;3.90;;;28.10;1.00;;;;;;4949533;28;20453;-84
2023/09/28 14:23:34;;;;;;;4.60;3.00;;;29.90;1.00;;;;;;4993562;28;20390;-85
2023/09/28 14:26:19;;;;;;;3.75;3.30;;;28.10;1.00;;;;;;5004878;28;20405;-85
2023/09/28 14:28:45;;;;;;;4.13;2.83;;;28.10;1.00;;;;;;4995049;28;20456;-83
2023/09/28 14:31:17;;;;;;;4.60;3.50;;;28.30;1.00;;;;;;4993169;28;20401;-83
2023/09/28 14:34:01;;;;;;;4.20;3.30;;;28.20;1.00;;;;;;4994763;28;20394;-85
2023/09/28 14:36:30;;;;;;;4.50;3.40;;;28.20;1.00;;;;;;4985222;28;20892;-85
2023/09/28 14:39:05;;;;;;;4.80;3.42;;;28.40;1.00;;;;;;4976508;28;20408;-84
2023/09/28 14:41:38;;;;;;;6.25;3.30;;;27.40;1.00;;;;;;4976754;28;20799;-84
2023/09/28 14:44:11;;;;;;;3.40;3.10;;;28.40;1.00;;;;;;4973842;28;20462;-85
2023/09/28 14:46:56;;;;;;;4.10;3.20;;;28.90;1.00;;;;;;4977684;28;20400;-89
2023/09/28 14:49:50;;;;;;;4.20;3.20;;;28.20;1.00;;;;;;4974400;28;20408;-87
2023/09/28 14:53:22;;;;;;;;;;;;;;;;;;;;;
2023/09/28 18:30:35;;;;;;;4.80;4.30;;;18.80;1.00;;;;;;1119906;22;20701;-88
2023/09/28 18:43:17;;;;;;;6.85;4.50;;;18.50;1.00;;;;;;4946519;29;20377;-89
2023/09/28 18:45:43;;;;;;;5.28;4.53;;;21.10;1.00;;;;;;4953121;29;20401;-87
2023/09/28 18:48:29;;;;;;;6.30;4.72;;;18.20;1.00;;;;;;4956503;28;20821;-88
2023/09/28 18:50:54;;;;;;;5.05;4.55;;;18.20;1.00;;;;;;4951944;29;20417;-85
2023/09/28 18:53:20;;;;;;;5.93;4.47;;;18.10;1.00;;;;;;4952208;28;20405;-86
2023/09/28 18:55:45;;;;;;;5.30;4.57;;;17.80;1.00;;;;;;4975388;28;20414;-87
2023/09/28 18:58:37;;;;;;;6.03;4.80;;;19.60;1.00;;;;;;4973474;28;20426;-89
2023/09/28 19:01:03;;;;;;;6.05;5.28;;;18.20;1.00;;;;;;4986459;28;20418;-88
2023/09/28 19:03:28;;;;;;;6.10;5.50;;;19.60;1.00;;;;;;4981292;28;20389;-89
2023/09/28 19:05:54;;;;;;;5.88;5.00;;;19.00;1.00;;;;;;4981281;28;20469;-87
2023/09/28 19:08:21;;;;;;;5.60;5.10;;;17.50;1.00;;;;;;4994561;28;20397;-88
2023/09/28 19:11:16;;;;;;;9.05;5.55;;;19.70;1.00;;;;;;5022364;23;20430;-89
2023/09/28 19:14:04;;;;;;;;;;;;;;;;;;;;;
2023/09/28 19:19:42;;;;;;;6.30;5.40;;;17.90;1.00;;;;;;4982636;28;20400;-89
2023/09/28 19:22:25;;;;;;;5.90;5.28;;;17.70;1.00;;;;;;4997599;28;20444;-88
2023/09/28 19:24:56;;;;;;;8.02;5.40;;;17.90;1.00;;;;;;4996257;28;20426;-88
2023/09/28 19:28:21;;;;;;;;;;;;;;;;;;;;;
2023/09/28 19:31:56;;;;;;;5.85;5.20;;;18.80;1.00;;;;;;5082616;23;20394;-86
2023/09/28 20:01:53;;;;;;;5.30;4.73;;;20.30;1.00;;;;;;5128344;23;20947;-88
2023/09/28 20:04:29;;;;;;;5.93;5.13;;;17.40;1.00;;;;;;5015036;28;20769;-86
2023/09/28 20:07:23;;;;;;;5.70;5.10;;;17.20;1.00;;;;;;5019268;28;20484;-87
2023/09/28 20:09:51;;;;;;;6.53;4.70;;;14.80;1.00;;;;;;5014273;28;20412;-86
2023/09/28 20:12:52;;;;;;;;;;;;;;;;;;;;;
2023/09/28 20:18:32;;;;;;;5.20;4.70;;;17.30;1.00;;;;;;5001848;28;20938;-87
2023/09/28 20:21:27;;;;;;;6.38;5.20;;;15.10;1.00;;;;;;5001950;28;20418;-87
2023/09/28 20:23:59;;;;;;;5.70;5.10;;;17.20;1.00;;;;;;5009194;28;20900;-86
2023/09/28 20:26:53;;;;;;;5.68;5.18;;;17.20;1.00;;;;;;5019943;28;20434;-87